Gould, AR (71643)

1:13 AM CDT on August 25, 2016 (GMT -0500)
MesoWest | | Change Station

Elev 170 ft 33.97 °N, 91.55 °W | Updated 1 hour ago

Clear
Clear
86.0 °F
Feels Like 86.0 °F
N
0.0
Wind Variable Wind from North
Gusts 0.0 mph

Today
High -- | Low -- °F
--% Chance of Precip.
Yesterday
High -- | Low -- °F
Precip. -- in
Pressure 30.08 in
Visibility 10.0 miles
Clouds Clear
Dew Point Not available.
Humidity Not available.
Rainfall in
Snow Depth Not available.
6:35 AM 7:40 PM
Waning Gibbous, 49% visible
METAR KPBF 250453Z AUTO 00000KT 10SM CLR 26/24 A3009 RMK AO2 SLP185 T02560244
Pressure 30.08 in
Visibility 10.0 miles
Clouds Clear
Dew Point Not available.
Humidity Not available.
Rainfall in
Snow Depth Not available.
6:35 AM 7:40 PM
Waning Gibbous, 49% visible
METAR KPBF 250453Z AUTO 00000KT 10SM CLR 26/24 A3009 RMK AO2 SLP185 T02560244

10-Day Weather Forecast

Almanac

Astronomy

Aug. 25, 2016 Rise Set
Actual Time
Civil Twilight
Nautical Twilight
Astronomical Twilight
Moon
Length of Visible Light
Length of Day
Tomorrow will be .
, % of the Moon is Illuminated

Today's Extremes

State Highs State Lows

Community

WunderPhotos

Upload Photos

1,934,803 photos uploaded!

WunderBlog® & News

Nearby

Air Quality

  Air Quality AQ Index Pollutant
Not available.

Snow Depth

Station Depth Elevation

Earthquake Activity

City Distance Mag. Time & Date
Minimum magnitude displayed is 2.5.

Coastal Water Temperatures

Place Temperature

Stations

Nearby Weather Stations

Station Location Temp. Windchill Dew Point Humidity Wind Precip. Elev Updated Type
                   

Watches & Warnings

There are currently no watches in effect.